GGG weather

East Texas Regional Airport
Longview, Texas, United States

Public forecast

Using degrees Fahrenheit for public forecast. Weather courtesy of forecast.io.

Current aviation weather report (METAR) for East Texas Regional Airport

Retrieved 2019/10/22 13:53 UTC (1 hour ago):

KGGG 221353Z 32005KT 10SM CLR 11/09 A3020 RMK AO2 SLP226 T01110089

Aviation forecast (TAF) for East Texas Regional Airport

Retrieved 2019/10/22 12:22 UTC (3 hours ago):

TAF KGGG 221120Z 2212/2312 30003KT P6SM SKC FM221500 34006KT P6SM SKC FM230000 VRB02KT P6SM SKC